Time;durP1;ratioP1;P1;durP2;ratioP2;P2;SDS_P1;SDS_P2;PMS_P1;PMS_P2;Temp;Humidity;BMP_temperature;BMP_pressure;BME280_temperature;BME280_humidity;BME280_pressure;Samples;Min_cycle;Max_cycle;Signal;HPM_P1;HPM_P2
2022/01/07 00:00:30;;;;;;;1.20;1.20;;;-0.20;98.00;;;;;;5033808;28;20460;-70
2022/01/07 00:03:00;;;;;;;1.20;1.10;;;-0.20;98.00;;;;;;5035469;28;20580;-70
2022/01/07 00:05:30;;;;;;;1.40;1.10;;;-0.20;98.00;;;;;;5034577;28;20458;-69
2022/01/07 00:07:57;;;;;;;1.10;1.00;;;-0.10;98.00;;;;;;5034999;28;20953;-70
2022/01/07 00:10:24;;;;;;;1.20;1.20;;;-0.20;98.00;;;;;;5034839;28;20503;-69
2022/01/07 00:12:52;;;;;;;1.20;1.20;;;-0.30;98.00;;;;;;5035098;28;20590;-70
2022/01/07 00:15:21;;;;;;;1.37;1.33;;;-0.30;98.00;;;;;;5034737;28;20463;-69
2022/01/07 00:17:49;;;;;;;1.30;1.30;;;-0.30;98.00;;;;;;5034719;28;20528;-70
2022/01/07 00:20:18;;;;;;;1.40;1.20;;;-0.40;98.00;;;;;;5034555;28;20535;-70
2022/01/07 00:22:47;;;;;;;1.20;1.20;;;-0.60;98.00;;;;;;5034824;28;20472;-70
2022/01/07 00:25:15;;;;;;;1.65;1.65;;;-0.60;98.00;;;;;;5034624;28;20497;-69
2022/01/07 00:27:44;;;;;;;1.80;1.70;;;-0.70;98.00;;;;;;5034421;28;20706;-70
2022/01/07 00:30:13;;;;;;;1.83;1.50;;;-0.70;98.00;;;;;;5034167;28;20526;-70
2022/01/07 00:32:42;;;;;;;2.17;1.35;;;-0.90;98.00;;;;;;5034575;28;20460;-70
2022/01/07 00:35:10;;;;;;;1.98;1.48;;;-1.00;98.00;;;;;;5034290;28;20699;-70
2022/01/07 00:37:41;;;;;;;3.05;1.23;;;-1.10;98.00;;;;;;5034263;28;20313;-69
2022/01/07 00:40:10;;;;;;;1.30;1.20;;;-1.10;98.00;;;;;;5033083;28;20248;-70
2022/01/07 00:42:38;;;;;;;1.95;1.48;;;-0.90;98.00;;;;;;5033100;28;20232;-70
2022/01/07 00:45:06;;;;;;;1.35;1.20;;;-0.70;98.00;;;;;;5034314;28;20247;-70
2022/01/07 00:47:33;;;;;;;1.55;1.20;;;-0.80;98.00;;;;;;5034346;28;20599;-69
2022/01/07 00:50:02;;;;;;;1.30;1.23;;;-0.90;98.00;;;;;;5034303;28;20247;-69
2022/01/07 00:52:29;;;;;;;1.20;1.20;;;-0.80;98.00;;;;;;5034199;28;20247;-70
2022/01/07 00:54:56;;;;;;;1.98;1.90;;;-0.60;98.00;;;;;;5034042;28;20296;-69
2022/01/07 00:57:23;;;;;;;1.10;1.10;;;-0.50;98.00;;;;;;5033837;28;20230;-70
2022/01/07 00:59:50;;;;;;;2.17;1.75;;;-0.60;98.00;;;;;;5034150;28;20208;-69
2022/01/07 01:02:18;;;;;;;1.40;1.30;;;-0.50;98.00;;;;;;5033261;28;20671;-70
2022/01/07 01:04:46;;;;;;;1.50;1.48;;;-0.50;98.00;;;;;;5033250;28;20235;-69
2022/01/07 01:07:15;;;;;;;1.90;1.83;;;-0.70;98.00;;;;;;5033482;28;20239;-70
2022/01/07 01:09:52;;;;;;;3.22;1.90;;;-0.90;98.00;;;;;;5033993;28;20306;-69
2022/01/07 01:12:19;;;;;;;1.52;1.42;;;-0.90;98.00;;;;;;5032902;28;20241;-70
2022/01/07 01:14:46;;;;;;;1.30;1.10;;;-0.90;98.00;;;;;;5033783;28;20240;-70
2022/01/07 01:17:13;;;;;;;1.30;1.30;;;-0.80;98.00;;;;;;5034018;28;20527;-69
2022/01/07 01:19:41;;;;;;;1.10;1.00;;;-0.80;98.00;;;;;;5033900;28;20268;-69
2022/01/07 01:22:08;;;;;;;7.67;2.70;;;-0.60;98.00;;;;;;5032783;28;20547;-70
2022/01/07 01:24:37;;;;;;;2.13;1.93;;;-0.60;98.00;;;;;;5032934;28;20459;-70
2022/01/07 01:27:04;;;;;;;1.67;1.60;;;-0.80;98.00;;;;;;5034017;28;20539;-69
2022/01/07 01:29:32;;;;;;;1.10;1.10;;;-1.00;98.00;;;;;;5033831;28;20525;-70
2022/01/07 01:31:59;;;;;;;1.67;1.53;;;-1.00;98.00;;;;;;5033448;28;20965;-70
2022/01/07 01:34:26;;;;;;;1.10;1.00;;;-1.10;98.00;;;;;;5033310;28;20508;-70
2022/01/07 01:36:53;;;;;;;1.45;1.42;;;-1.30;98.00;;;;;;5032740;28;20522;-70
2022/01/07 01:39:20;;;;;;;1.10;1.00;;;-1.40;98.00;;;;;;5033004;28;20204;-69
2022/01/07 01:41:49;;;;;;;1.30;1.20;;;-1.30;98.00;;;;;;5032934;28;20243;-70
2022/01/07 01:44:16;;;;;;;1.95;1.85;;;-1.20;98.00;;;;;;5032749;28;20295;-69
2022/01/07 01:46:43;;;;;;;2.03;1.73;;;-1.30;98.00;;;;;;5032974;28;20250;-70
2022/01/07 01:49:10;;;;;;;1.10;1.00;;;-1.30;98.00;;;;;;5033134;28;20614;-70
2022/01/07 01:51:38;;;;;;;1.10;1.02;;;-1.40;98.00;;;;;;5033033;28;20263;-70
2022/01/07 01:54:05;;;;;;;2.80;2.60;;;-1.40;98.00;;;;;;5033196;28;20212;-69
2022/01/07 01:56:34;;;;;;;3.00;1.67;;;-1.40;98.00;;;;;;5032738;28;20460;-70
2022/01/07 01:59:03;;;;;;;1.35;1.30;;;-1.20;98.00;;;;;;5033095;28;20236;-69
2022/01/07 02:01:30;;;;;;;10.48;2.30;;;-1.00;98.00;;;;;;5032830;28;20631;-69
2022/01/07 02:03:58;;;;;;;1.13;1.10;;;-1.00;98.00;;;;;;5032794;28;20240;-69
2022/01/07 02:06:25;;;;;;;1.10;1.00;;;-0.80;98.00;;;;;;5032744;28;20215;-69
2022/01/07 02:08:54;;;;;;;1.73;1.63;;;-0.90;98.00;;;;;;5032750;28;20487;-69
2022/01/07 02:11:21;;;;;;;1.10;1.00;;;-0.90;98.00;;;;;;5032843;28;20237;-69
2022/01/07 02:13:48;;;;;;;1.30;1.20;;;-1.00;98.00;;;;;;5032760;28;20550;-69
2022/01/07 02:16:17;;;;;;;1.10;1.00;;;-1.10;98.00;;;;;;5031258;28;20263;-69
2022/01/07 02:18:44;;;;;;;1.50;1.40;;;-1.10;98.00;;;;;;5032667;28;20523;-69
2022/01/07 02:21:13;;;;;;;1.70;1.60;;;-1.10;98.00;;;;;;5032646;28;20291;-70
2022/01/07 02:23:40;;;;;;;1.10;1.00;;;-1.20;98.00;;;;;;5031064;28;20597;-70
2022/01/07 02:26:10;;;;;;;1.20;1.10;;;-1.00;98.00;;;;;;5032660;28;20531;-69
2022/01/07 02:28:38;;;;;;;1.80;1.45;;;-1.10;98.00;;;;;;5032539;28;20216;-70
2022/01/07 02:31:05;;;;;;;2.20;1.73;;;-1.10;98.00;;;;;;5032378;28;20218;-69
2022/01/07 02:33:32;;;;;;;1.42;1.27;;;-1.00;98.00;;;;;;5032277;28;20729;-70
2022/01/07 02:36:08;;;;;;;2.05;1.92;;;-0.90;98.00;;;;;;5032397;28;20637;-70
2022/01/07 02:38:42;;;;;;;1.60;1.50;;;-1.00;98.00;;;;;;5032221;28;20226;-69
2022/01/07 02:41:10;;;;;;;1.30;1.20;;;-1.20;98.00;;;;;;5032121;28;20248;-69
2022/01/07 02:43:37;;;;;;;2.25;2.05;;;-1.10;98.00;;;;;;5032029;28;20242;-69
2022/01/07 02:46:04;;;;;;;1.73;1.40;;;-1.00;98.00;;;;;;5032308;28;20211;-69
2022/01/07 02:48:31;;;;;;;1.20;1.10;;;-1.00;98.00;;;;;;5032094;28;20241;-69
2022/01/07 02:50:58;;;;;;;1.30;1.30;;;-0.90;98.00;;;;;;5032191;28;20204;-69
2022/01/07 02:53:25;;;;;;;1.10;1.00;;;-1.00;98.00;;;;;;5032441;28;20240;-69
2022/01/07 02:55:53;;;;;;;1.20;1.17;;;-1.00;98.00;;;;;;5032084;28;20314;-69
2022/01/07 02:58:20;;;;;;;1.52;1.35;;;-0.90;98.00;;;;;;5032198;28;20260;-69
2022/01/07 03:00:47;;;;;;;4.03;2.28;;;-1.10;98.00;;;;;;5031847;28;20251;-69
2022/01/07 03:03:14;;;;;;;1.10;1.00;;;-1.20;98.00;;;;;;5031720;28;20251;-69
2022/01/07 03:05:42;;;;;;;2.63;1.88;;;-1.40;98.00;;;;;;5031813;28;20255;-69
2022/01/07 03:08:10;;;;;;;3.53;1.67;;;-1.40;98.00;;;;;;5031773;28;20200;-69
2022/01/07 03:10:38;;;;;;;1.75;1.50;;;-1.40;98.00;;;;;;5031270;28;20561;-69
2022/01/07 03:13:08;;;;;;;2.08;1.75;;;-1.50;98.00;;;;;;5031817;28;20236;-69
2022/01/07 03:15:37;;;;;;;1.65;1.38;;;-1.30;98.00;;;;;;5031522;28;20210;-69
2022/01/07 03:18:05;;;;;;;3.55;2.28;;;-1.30;98.00;;;;;;5031558;28;20310;-70
2022/01/07 03:20:37;;;;;;;1.10;1.00;;;-1.20;98.00;;;;;;5031606;28;20239;-69
2022/01/07 03:23:06;;;;;;;1.10;1.10;;;-1.00;98.00;;;;;;5031787;28;20205;-69
2022/01/07 03:25:34;;;;;;;2.13;1.77;;;-0.90;98.00;;;;;;5031754;28;20458;-69
2022/01/07 03:28:01;;;;;;;1.10;1.10;;;-1.10;98.00;;;;;;5031663;28;20209;-69
2022/01/07 03:30:30;;;;;;;2.10;1.40;;;-1.20;98.00;;;;;;5031517;28;20208;-69
2022/01/07 03:32:58;;;;;;;1.60;1.53;;;-1.30;98.00;;;;;;5031610;28;20740;-69
2022/01/07 03:35:25;;;;;;;1.48;1.33;;;-1.30;98.00;;;;;;5033917;28;20456;-70
2022/01/07 03:37:53;;;;;;;1.55;1.45;;;-1.40;98.00;;;;;;5035532;28;20306;-69
2022/01/07 03:40:21;;;;;;;2.42;2.22;;;-1.40;98.00;;;;;;5035457;28;20243;-69
2022/01/07 03:42:49;;;;;;;1.10;1.10;;;-1.40;98.00;;;;;;5035474;28;20231;-70
2022/01/07 03:45:17;;;;;;;1.13;1.00;;;-1.60;98.00;;;;;;5035467;28;20209;-69
2022/01/07 03:47:46;;;;;;;1.50;1.40;;;-1.60;98.00;;;;;;5035575;28;20310;-69
2022/01/07 03:50:15;;;;;;;1.35;1.30;;;-1.60;98.00;;;;;;5035329;28;20999;-69
2022/01/07 03:52:43;;;;;;;1.77;1.57;;;-1.50;98.00;;;;;;5035509;28;20296;-69
2022/01/07 03:55:12;;;;;;;1.10;1.10;;;-1.50;98.00;;;;;;5035232;28;20560;-69
2022/01/07 03:57:40;;;;;;;1.10;1.00;;;-1.30;98.00;;;;;;5035372;28;20675;-69
2022/01/07 04:00:10;;;;;;;1.52;1.48;;;-1.30;98.00;;;;;;5035075;28;20289;-69
2022/01/07 04:02:37;;;;;;;1.15;1.10;;;-1.20;98.00;;;;;;5035249;28;20259;-69
2022/01/07 04:05:08;;;;;;;1.10;1.10;;;-1.10;98.00;;;;;;5033997;28;20247;-69
2022/01/07 04:07:36;;;;;;;6.22;4.10;;;-1.00;98.00;;;;;;5035204;28;20936;-69
2022/01/07 04:10:05;;;;;;;1.30;1.20;;;-1.10;98.00;;;;;;5034124;28;20661;-69
2022/01/07 04:12:32;;;;;;;1.38;1.33;;;-1.10;98.00;;;;;;5035163;28;20255;-69
2022/01/07 04:15:08;;;;;;;1.30;1.17;;;-1.00;98.00;;;;;;5035217;28;20241;-69
2022/01/07 04:17:40;;;;;;;1.10;1.10;;;-0.90;98.00;;;;;;5034692;28;20209;-70
2022/01/07 04:20:11;;;;;;;1.20;1.20;;;-1.00;98.00;;;;;;5034990;28;21058;-69
2022/01/07 04:22:39;;;;;;;1.58;1.58;;;-1.00;98.00;;;;;;5034890;28;20826;-69
2022/01/07 04:25:12;;;;;;;1.33;1.25;;;-1.00;98.00;;;;;;5034548;28;20237;-69
2022/01/07 04:27:40;;;;;;;1.40;1.20;;;-1.00;98.00;;;;;;5034687;28;20214;-69
2022/01/07 04:30:08;;;;;;;2.22;1.30;;;-1.00;98.00;;;;;;5034816;28;20564;-69
2022/01/07 04:32:37;;;;;;;3.88;2.10;;;-1.00;98.00;;;;;;5034640;28;20299;-69
2022/01/07 04:35:05;;;;;;;1.90;1.80;;;-1.10;98.00;;;;;;5034468;28;20203;-69
2022/01/07 04:37:33;;;;;;;1.27;1.25;;;-1.10;98.00;;;;;;5033275;28;20637;-69
2022/01/07 04:40:01;;;;;;;2.10;1.75;;;-1.20;98.00;;;;;;5034231;28;20639;-69
2022/01/07 04:42:28;;;;;;;1.10;1.00;;;-1.30;98.00;;;;;;5034247;28;20618;-70
2022/01/07 04:44:55;;;;;;;1.30;1.25;;;-1.40;98.00;;;;;;5034194;28;20209;-69
2022/01/07 04:47:22;;;;;;;1.63;1.45;;;-1.50;98.00;;;;;;5034169;28;20244;-69
2022/01/07 04:49:50;;;;;;;2.03;1.90;;;-1.50;98.00;;;;;;5034203;28;20550;-69
2022/01/07 04:52:17;;;;;;;1.60;1.48;;;-1.50;98.00;;;;;;5034030;28;20203;-69
2022/01/07 04:54:48;;;;;;;1.50;1.25;;;-1.60;98.00;;;;;;5034263;28;20208;-69
2022/01/07 04:57:16;;;;;;;1.15;1.10;;;-1.60;98.00;;;;;;5034034;28;20208;-69
2022/01/07 04:59:44;;;;;;;1.25;1.23;;;-1.70;98.00;;;;;;5032699;28;20227;-69
2022/01/07 05:02:11;;;;;;;1.63;1.52;;;-1.70;98.00;;;;;;5034143;28;20240;-70
2022/01/07 05:04:38;;;;;;;1.77;1.20;;;-1.80;98.00;;;;;;5032689;28;20572;-69
2022/01/07 05:07:05;;;;;;;1.83;1.75;;;-1.80;98.00;;;;;;5033912;28;20244;-69
2022/01/07 05:09:34;;;;;;;1.10;0.90;;;-1.60;98.00;;;;;;5033893;28;20258;-69
2022/01/07 05:12:03;;;;;;;8.82;1.90;;;-1.50;98.00;;;;;;5033825;28;20200;-69
2022/01/07 05:14:30;;;;;;;1.10;1.00;;;-1.40;98.00;;;;;;5033698;28;20204;-69
2022/01/07 05:16:57;;;;;;;4.03;1.90;;;-1.60;98.00;;;;;;5032611;28;20246;-69
2022/01/07 05:19:24;;;;;;;1.10;1.00;;;-1.60;98.00;;;;;;5033273;28;20660;-69
2022/01/07 05:21:51;;;;;;;1.40;1.20;;;-1.70;98.00;;;;;;5033927;28;20737;-69
2022/01/07 05:24:19;;;;;;;2.13;1.88;;;-1.60;98.00;;;;;;5032671;28;20228;-69
2022/01/07 05:26:46;;;;;;;1.70;1.65;;;-1.70;98.00;;;;;;5032567;28;20295;-69
2022/01/07 05:29:14;;;;;;;1.23;1.20;;;-1.80;98.00;;;;;;5032500;28;20636;-69
2022/01/07 05:31:41;;;;;;;1.73;1.55;;;-1.90;98.00;;;;;;5033839;28;20246;-70
2022/01/07 05:34:08;;;;;;;1.10;0.90;;;-2.00;98.00;;;;;;5033185;28;20291;-70
2022/01/07 05:36:37;;;;;;;2.05;1.50;;;-1.90;98.00;;;;;;5033621;28;20663;-69
2022/01/07 05:39:05;;;;;;;1.52;1.50;;;-1.80;98.00;;;;;;5033798;28;20229;-69
2022/01/07 05:41:32;;;;;;;1.45;1.42;;;-1.70;98.00;;;;;;5031982;28;20212;-69
2022/01/07 05:44:00;;;;;;;1.83;1.65;;;-1.70;98.00;;;;;;5033386;28;20200;-69
2022/01/07 05:46:28;;;;;;;1.10;1.10;;;-1.60;98.00;;;;;;5032860;28;20205;-69
2022/01/07 05:48:55;;;;;;;1.30;1.23;;;-1.60;98.00;;;;;;5032646;28;20311;-69
2022/01/07 05:51:22;;;;;;;1.48;1.42;;;-1.50;98.00;;;;;;5031212;28;20283;-70
2022/01/07 05:53:49;;;;;;;1.92;1.50;;;-1.40;98.00;;;;;;5032456;28;20257;-69
2022/01/07 05:56:16;;;;;;;1.63;1.48;;;-1.30;98.00;;;;;;5032215;28;20262;-69
2022/01/07 05:58:43;;;;;;;1.10;1.00;;;-1.30;98.00;;;;;;5032270;28;20307;-69
2022/01/07 06:01:12;;;;;;;1.98;1.88;;;-1.30;98.00;;;;;;5031573;28;20228;-70
2022/01/07 06:03:43;;;;;;;2.05;1.92;;;-1.30;98.00;;;;;;5031736;28;20215;-69
2022/01/07 06:06:10;;;;;;;2.90;1.50;;;-1.40;98.00;;;;;;5031284;28;20204;-69
2022/01/07 06:08:37;;;;;;;2.97;2.67;;;-1.50;98.00;;;;;;5032925;28;20915;-69
2022/01/07 06:11:04;;;;;;;1.52;1.25;;;-1.50;98.00;;;;;;5032746;28;20307;-70
2022/01/07 06:13:33;;;;;;;1.10;1.00;;;-1.50;98.00;;;;;;5031201;28;20209;-70
2022/01/07 06:15:59;;;;;;;2.03;1.90;;;-1.50;98.00;;;;;;5032582;28;20270;-69
2022/01/07 06:18:27;;;;;;;1.40;1.20;;;-1.50;98.00;;;;;;5032620;28;20314;-69
2022/01/07 06:20:57;;;;;;;1.20;1.10;;;-1.50;98.00;;;;;;5032554;28;20244;-69
2022/01/07 06:23:25;;;;;;;2.00;1.57;;;-1.50;98.00;;;;;;5032472;28;20262;-69
2022/01/07 06:25:52;;;;;;;1.92;1.83;;;-1.40;98.00;;;;;;5031157;28;20537;-69
2022/01/07 06:28:19;;;;;;;1.55;1.20;;;-1.30;98.00;;;;;;5032627;28;20204;-69
2022/01/07 06:30:47;;;;;;;1.10;1.00;;;-1.30;98.00;;;;;;5032371;28;20240;-69
2022/01/07 06:33:14;;;;;;;1.10;1.00;;;-1.20;98.00;;;;;;5032113;28;20634;-69
2022/01/07 06:35:49;;;;;;;1.10;1.00;;;-1.10;98.00;;;;;;5032373;28;20724;-69
2022/01/07 06:38:17;;;;;;;1.30;1.23;;;-1.10;98.00;;;;;;5015825;28;20485;-69
2022/01/07 06:40:44;;;;;;;1.30;1.27;;;-1.10;98.00;;;;;;5032165;28;20244;-69
2022/01/07 06:43:11;;;;;;;1.85;1.30;;;-1.00;98.00;;;;;;5032396;28;20714;-70
2022/01/07 06:45:38;;;;;;;1.20;1.20;;;-1.10;98.00;;;;;;5030870;28;20224;-69
2022/01/07 06:48:05;;;;;;;1.30;1.20;;;-1.00;98.00;;;;;;5032252;28;20495;-69
2022/01/07 06:50:33;;;;;;;1.73;1.73;;;-0.90;98.00;;;;;;5032216;28;20487;-69
2022/01/07 06:53:00;;;;;;;1.38;1.13;;;-0.80;98.00;;;;;;5032158;28;20247;-69
2022/01/07 06:55:28;;;;;;;1.97;1.67;;;-0.80;98.00;;;;;;5032142;28;20207;-70
2022/01/07 06:57:56;;;;;;;1.10;1.10;;;-0.70;98.00;;;;;;5032076;28;20554;-69
2022/01/07 07:00:24;;;;;;;2.55;1.20;;;-0.70;98.00;;;;;;5031951;28;20318;-69
2022/01/07 07:02:51;;;;;;;1.10;1.00;;;-0.70;98.00;;;;;;5030790;28;20241;-69
2022/01/07 07:05:19;;;;;;;1.13;1.03;;;-0.80;98.00;;;;;;5014257;28;20627;-69
2022/01/07 07:07:46;;;;;;;1.65;1.30;;;-0.90;98.00;;;;;;5030346;28;20533;-70
2022/01/07 07:10:13;;;;;;;1.65;1.63;;;-0.90;98.00;;;;;;5031089;28;20235;-70
2022/01/07 07:12:41;;;;;;;1.35;1.13;;;-1.00;98.00;;;;;;5031710;28;20292;-69
2022/01/07 07:15:08;;;;;;;1.75;1.38;;;-1.00;98.00;;;;;;5031609;28;20247;-69
2022/01/07 07:17:36;;;;;;;2.17;1.30;;;-1.00;98.00;;;;;;5031544;28;20246;-69
2022/01/07 07:20:04;;;;;;;1.10;1.00;;;-1.00;98.00;;;;;;5031809;28;20644;-69
2022/01/07 07:22:31;;;;;;;1.13;1.13;;;-0.90;98.00;;;;;;5031651;28;20202;-69
2022/01/07 07:24:58;;;;;;;2.15;1.88;;;-0.70;98.00;;;;;;5031072;28;20460;-69
2022/01/07 07:27:25;;;;;;;1.57;1.50;;;-0.70;98.00;;;;;;5030243;28;20240;-70
2022/01/07 07:29:54;;;;;;;1.40;1.30;;;-0.70;98.00;;;;;;5031603;28;20497;-69
2022/01/07 07:32:26;;;;;;;1.10;1.00;;;-0.70;98.00;;;;;;5031514;28;20297;-69
2022/01/07 07:36:25;;;;;;;1.10;1.08;;;-0.70;98.00;;;;;;5031648;28;20213;-69
2022/01/07 07:37:49;;;;;;;1.10;1.10;;;-0.60;98.00;;;;;;5031473;28;20591;-70
2022/01/07 07:40:18;;;;;;;1.10;1.00;;;-0.70;98.00;;;;;;5031349;28;20276;-70
2022/01/07 07:42:45;;;;;;;1.10;1.00;;;-0.70;98.00;;;;;;5031495;28;20354;-70
2022/01/07 07:45:13;;;;;;;1.35;1.30;;;-0.70;98.00;;;;;;5031538;28;20465;-70
2022/01/07 07:47:42;;;;;;;1.27;1.20;;;-0.70;98.00;;;;;;5031569;28;20265;-71
2022/01/07 07:50:10;;;;;;;1.10;1.05;;;-0.50;98.00;;;;;;5030504;28;20353;-71
2022/01/07 07:52:37;;;;;;;2.40;2.17;;;-0.60;98.00;;;;;;5031366;28;20209;-70
2022/01/07 07:55:05;;;;;;;1.10;1.00;;;-0.50;98.00;;;;;;5031168;28;20524;-70
2022/01/07 07:57:32;;;;;;;1.40;1.40;;;-0.40;98.00;;;;;;5031338;28;20544;-71
2022/01/07 08:00:00;;;;;;;1.50;1.38;;;-0.30;98.00;;;;;;5031316;28;20233;-71
2022/01/07 08:02:30;;;;;;;1.10;1.00;;;-0.30;98.00;;;;;;5030922;28;20686;-71
2022/01/07 08:04:57;;;;;;;1.50;1.40;;;-0.30;98.00;;;;;;5031350;28;20460;-70
2022/01/07 08:07:24;;;;;;;1.10;1.00;;;-0.30;98.00;;;;;;5031041;28;20459;-71
2022/01/07 08:09:53;;;;;;;1.40;1.30;;;-0.30;98.00;;;;;;5029767;28;20456;-71
2022/01/07 08:12:25;;;;;;;1.40;1.30;;;-0.20;98.00;;;;;;5031391;28;20232;-71
2022/01/07 08:17:38;;;;;;;1.20;1.10;;;-0.10;98.00;;;;;;5031183;28;20229;-71
2022/01/07 08:20:07;;;;;;;1.30;1.23;;;-0.10;98.00;;;;;;5031387;28;20527;-71
2022/01/07 08:22:34;;;;;;;1.10;1.03;;;0.00;98.00;;;;;;5034812;28;20452;-71
2022/01/07 08:25:01;;;;;;;1.70;1.43;;;0.00;98.00;;;;;;5034973;28;20487;-71
2022/01/07 08:27:28;;;;;;;1.30;1.30;;;0.00;98.00;;;;;;5034929;28;20479;-71
2022/01/07 08:29:56;;;;;;;1.10;1.10;;;0.10;98.00;;;;;;5035022;28;20490;-70
2022/01/07 08:35:09;;;;;;;1.40;1.30;;;0.00;98.00;;;;;;5034974;28;20535;-71
2022/01/07 08:37:37;;;;;;;1.80;1.50;;;0.00;98.00;;;;;;5034699;28;20546;-71
2022/01/07 08:40:05;;;;;;;1.30;1.20;;;0.00;98.00;;;;;;5034288;28;20541;-70
2022/01/07 08:42:33;;;;;;;1.65;1.45;;;-0.10;98.00;;;;;;5033150;28;20953;-71
2022/01/07 08:45:03;;;;;;;1.52;1.25;;;-0.10;98.00;;;;;;5034596;28;20208;-71
2022/01/07 08:47:30;;;;;;;1.20;1.10;;;-0.10;98.00;;;;;;5034305;28;20247;-70
2022/01/07 08:49:57;;;;;;;1.20;1.10;;;-0.20;98.00;;;;;;5033860;28;20611;-70
2022/01/07 08:52:26;;;;;;;1.10;1.00;;;-0.20;98.00;;;;;;5034402;28;20556;-71
2022/01/07 08:54:53;;;;;;;3.63;1.70;;;-0.10;98.00;;;;;;5032398;28;20240;-69
2022/01/07 08:57:22;;;;;;;1.23;1.17;;;-0.10;98.00;;;;;;5024999;28;20452;-69
2022/01/07 08:59:49;;;;;;;1.83;1.55;;;0.00;98.00;;;;;;5040788;28;20560;-70
2022/01/07 09:02:17;;;;;;;1.33;1.33;;;0.00;98.00;;;;;;5041805;28;20202;-70
2022/01/07 09:04:44;;;;;;;1.58;1.42;;;0.00;98.00;;;;;;5049881;28;20205;-70
2022/01/07 09:07:12;;;;;;;3.33;2.20;;;0.00;98.00;;;;;;5040753;28;20232;-71
2022/01/07 09:09:41;;;;;;;1.10;1.00;;;0.10;98.00;;;;;;5032183;28;20506;-71
2022/01/07 09:12:10;;;;;;;1.97;1.87;;;0.10;98.00;;;;;;5032652;28;20205;-71
2022/01/07 09:14:37;;;;;;;2.00;1.85;;;0.20;98.00;;;;;;5032045;28;20541;-71
2022/01/07 09:17:05;;;;;;;1.10;1.00;;;0.20;98.00;;;;;;5048726;28;20232;-71
2022/01/07 09:19:32;;;;;;;1.20;1.20;;;0.20;98.00;;;;;;5031622;28;20488;-71
2022/01/07 09:22:00;;;;;;;2.20;1.70;;;0.30;98.00;;;;;;5040796;28;20507;-71
2022/01/07 09:24:29;;;;;;;1.60;1.50;;;0.30;98.00;;;;;;5040120;28;20889;-72
2022/01/07 09:26:58;;;;;;;1.20;1.20;;;0.40;98.00;;;;;;5049436;28;20490;-71
2022/01/07 09:29:26;;;;;;;1.10;1.00;;;0.60;98.00;;;;;;5041261;28;20892;-71
2022/01/07 09:31:54;;;;;;;1.57;1.47;;;0.80;98.00;;;;;;5048430;28;20538;-71
2022/01/07 09:34:21;;;;;;;2.30;2.10;;;0.90;98.00;;;;;;5049727;28;20560;-71
2022/01/07 09:36:48;;;;;;;1.10;0.93;;;1.00;98.00;;;;;;5033325;28;20544;-71
2022/01/07 09:39:16;;;;;;;1.93;1.47;;;1.10;98.00;;;;;;5048366;28;20968;-71
2022/01/07 09:41:43;;;;;;;1.60;1.50;;;1.10;98.00;;;;;;5040013;28;20472;-70
2022/01/07 09:44:13;;;;;;;1.27;1.23;;;1.00;98.00;;;;;;5039643;28;20455;-70
2022/01/07 09:46:41;;;;;;;1.10;1.00;;;1.00;98.00;;;;;;5031845;28;20479;-71
2022/01/07 09:49:09;;;;;;;1.63;1.53;;;1.00;98.00;;;;;;5032254;28;20523;-71
2022/01/07 09:51:38;;;;;;;1.53;1.43;;;1.00;98.00;;;;;;5039636;28;20917;-71
2022/01/07 09:54:06;;;;;;;1.40;1.30;;;1.30;98.00;;;;;;5049733;28;20548;-71
2022/01/07 09:56:33;;;;;;;1.40;1.40;;;1.30;98.00;;;;;;5034380;28;20549;-71
2022/01/07 09:59:04;;;;;;;1.43;1.33;;;1.30;98.00;;;;;;5040363;28;20458;-71
2022/01/07 10:01:57;;;;;;;1.20;1.20;;;1.30;98.00;;;;;;5039768;28;20857;-71
2022/01/07 10:04:29;;;;;;;1.97;1.63;;;1.20;98.00;;;;;;5033990;28;20467;-71
2022/01/07 10:07:16;;;;;;;2.70;1.83;;;1.30;98.00;;;;;;5042639;28;20493;-67
2022/01/07 10:09:58;;;;;;;1.70;1.50;;;1.30;98.00;;;;;;5048639;28;20473;-67
2022/01/07 10:12:25;;;;;;;2.67;1.70;;;1.40;98.00;;;;;;5047288;28;20996;-68
2022/01/07 10:15:12;;;;;;;3.13;1.63;;;1.50;98.00;;;;;;5048513;28;20500;-67
2022/01/07 10:17:41;;;;;;;2.23;1.37;;;1.60;98.00;;;;;;5040303;28;20530;-70
2022/01/07 10:20:15;;;;;;;1.50;1.50;;;1.60;98.00;;;;;;5047014;28;20820;-70
2022/01/07 10:22:51;;;;;;;1.10;1.00;;;1.60;98.00;;;;;;5023342;28;20466;-72
2022/01/07 10:25:23;;;;;;;1.10;1.00;;;1.50;98.00;;;;;;5031669;28;20472;-70
2022/01/07 10:27:52;;;;;;;1.83;1.70;;;1.50;98.00;;;;;;5034033;28;21230;-69
2022/01/07 10:30:25;;;;;;;1.20;1.17;;;1.50;98.00;;;;;;5037240;28;20932;-69
2022/01/07 10:32:55;;;;;;;1.10;1.10;;;1.50;98.00;;;;;;5040066;28;21571;-69
2022/01/07 10:35:24;;;;;;;1.20;1.20;;;1.60;98.00;;;;;;5034515;28;20844;-70
2022/01/07 10:37:54;;;;;;;1.10;1.00;;;1.60;98.00;;;;;;5045226;28;20457;-71
2022/01/07 10:40:32;;;;;;;1.30;1.20;;;1.60;98.00;;;;;;5031383;28;20497;-69
2022/01/07 10:43:14;;;;;;;1.10;1.00;;;1.70;98.00;;;;;;5034531;28;20503;-70
2022/01/07 10:45:43;;;;;;;2.20;1.97;;;1.80;98.00;;;;;;5047638;28;20492;-71
2022/01/07 10:48:12;;;;;;;1.43;1.33;;;1.80;98.00;;;;;;5047693;28;20513;-70
2022/01/07 10:50:42;;;;;;;2.80;1.77;;;1.70;98.00;;;;;;5044573;28;20987;-71
2022/01/07 10:53:16;;;;;;;3.20;1.57;;;1.80;98.00;;;;;;5039443;28;20454;-71
2022/01/07 10:56:08;;;;;;;1.83;1.23;;;1.90;98.00;;;;;;5030661;28;20492;-71
2022/01/07 10:59:01;;;;;;;2.77;2.23;;;1.90;98.00;;;;;;5040561;28;20449;-71
2022/01/07 11:01:32;;;;;;;1.70;1.60;;;2.10;98.00;;;;;;5042164;28;20554;-71
2022/01/07 11:04:03;;;;;;;1.63;1.53;;;2.10;98.00;;;;;;5039368;28;20500;-72
2022/01/07 11:06:31;;;;;;;1.87;1.63;;;2.10;98.00;;;;;;5035025;28;20556;-69
2022/01/07 11:08:59;;;;;;;2.07;1.77;;;2.30;98.00;;;;;;5029656;28;20502;-69
2022/01/07 11:11:28;;;;;;;1.10;1.00;;;2.10;98.00;;;;;;5030087;28;20457;-69
2022/01/07 11:13:56;;;;;;;1.70;1.70;;;2.10;98.00;;;;;;5039110;28;20490;-69
2022/01/07 11:16:24;;;;;;;4.23;3.00;;;2.10;98.00;;;;;;5030686;28;21014;-70
2022/01/07 11:18:52;;;;;;;2.13;1.77;;;2.10;98.00;;;;;;5032721;28;20502;-69
2022/01/07 11:21:21;;;;;;;2.63;2.30;;;2.10;98.00;;;;;;5041863;28;20532;-71
2022/01/07 11:23:48;;;;;;;8.53;2.87;;;2.10;98.00;;;;;;5035436;28;20524;-72
2022/01/07 11:26:16;;;;;;;1.50;1.40;;;2.10;98.00;;;;;;5038575;28;20870;-71
2022/01/07 11:28:59;;;;;;;1.90;1.80;;;2.20;98.00;;;;;;5037649;28;20488;-71
2022/01/07 11:31:26;;;;;;;1.90;1.60;;;2.40;98.00;;;;;;5032433;28;20497;-71
2022/01/07 11:34:26;;;;;;;2.70;2.37;;;2.40;98.00;;;;;;5036730;28;20561;-71
2022/01/07 11:36:55;;;;;;;1.10;1.10;;;2.40;98.00;;;;;;5029710;28;20458;-71
2022/01/07 11:39:23;;;;;;;2.30;2.03;;;2.30;98.00;;;;;;5039952;28;20460;-72
2022/01/07 11:41:55;;;;;;;2.90;2.50;;;2.30;98.00;;;;;;5037838;28;21027;-71
2022/01/07 11:44:25;;;;;;;3.00;1.50;;;2.30;98.00;;;;;;5046922;28;20467;-72
2022/01/07 11:46:53;;;;;;;1.50;1.10;;;2.20;98.00;;;;;;5038646;28;20471;-71
2022/01/07 11:49:35;;;;;;;1.10;1.00;;;2.20;98.00;;;;;;5044071;28;20504;-72
2022/01/07 11:52:33;;;;;;;3.10;2.23;;;2.20;98.00;;;;;;5034957;28;20629;-71
2022/01/07 11:55:30;;;;;;;4.87;2.03;;;2.20;98.00;;;;;;5038231;28;20465;-71
2022/01/07 11:58:03;;;;;;;3.33;1.67;;;2.20;98.00;;;;;;5051172;28;20575;-71
2022/01/07 12:00:56;;;;;;;1.10;1.00;;;2.40;98.00;;;;;;5048179;28;21026;-71
2022/01/07 12:03:40;;;;;;;1.30;1.30;;;2.50;98.00;;;;;;5034853;28;20488;-71
2022/01/07 12:06:45;;;;;;;1.40;1.37;;;2.60;98.00;;;;;;5040717;28;20478;-71
2022/01/07 12:09:19;;;;;;;1.60;1.20;;;2.60;98.00;;;;;;5041294;28;20462;-71
2022/01/07 12:11:53;;;;;;;1.50;1.40;;;2.40;98.00;;;;;;5042200;28;20529;-71
2022/01/07 12:14:23;;;;;;;1.10;1.00;;;2.40;98.00;;;;;;5041619;28;20461;-71
2022/01/07 12:16:53;;;;;;;1.90;1.73;;;2.50;98.00;;;;;;5037954;28;20497;-72
2022/01/07 12:20:00;;;;;;;1.30;1.30;;;2.40;98.00;;;;;;5047520;28;20488;-72
2022/01/07 12:22:27;;;;;;;1.70;1.40;;;2.30;98.00;;;;;;5025904;28;20880;-72
2022/01/07 12:25:02;;;;;;;1.87;1.47;;;2.40;98.00;;;;;;5048831;28;20497;-71
2022/01/07 12:27:29;;;;;;;2.03;1.23;;;2.40;98.00;;;;;;5035584;28;20551;-69
2022/01/07 12:29:58;;;;;;;3.00;2.07;;;2.60;98.00;;;;;;5049819;28;20541;-69
2022/01/07 12:32:38;;;;;;;2.23;2.03;;;2.60;98.00;;;;;;5041672;28;20560;-68
2022/01/07 12:35:07;;;;;;;1.10;1.10;;;2.70;98.00;;;;;;5035022;28;20497;-69
2022/01/07 12:37:35;;;;;;;1.67;1.47;;;2.70;98.00;;;;;;5034851;28;20494;-69
2022/01/07 12:40:06;;;;;;;1.57;1.53;;;2.70;98.00;;;;;;5033016;28;20986;-69
2022/01/07 12:42:41;;;;;;;3.33;1.87;;;2.60;98.00;;;;;;5033955;28;20494;-68
2022/01/07 12:45:14;;;;;;;2.17;1.50;;;2.60;98.00;;;;;;5034666;28;20469;-69
2022/01/07 12:47:42;;;;;;;1.20;1.20;;;2.50;98.00;;;;;;5034688;28;20927;-69
2022/01/07 12:50:09;;;;;;;1.30;1.30;;;2.50;98.00;;;;;;5033670;28;20485;-68
2022/01/07 12:52:38;;;;;;;1.63;1.53;;;2.60;98.00;;;;;;5034269;28;20893;-69
2022/01/07 12:55:10;;;;;;;1.20;1.20;;;2.70;98.00;;;;;;5034138;28;20463;-69
2022/01/07 12:57:42;;;;;;;1.60;1.50;;;2.70;98.00;;;;;;5034353;28;20653;-69
2022/01/07 13:00:13;;;;;;;2.87;1.73;;;2.70;98.00;;;;;;5034199;28;20458;-68
2022/01/07 13:02:42;;;;;;;1.83;1.80;;;2.80;98.00;;;;;;5033995;28;20957;-68
2022/01/07 13:05:21;;;;;;;1.10;1.00;;;2.80;98.00;;;;;;5034212;28;20621;-69
2022/01/07 13:07:52;;;;;;;1.60;1.47;;;2.70;98.00;;;;;;5033702;28;20885;-68